createdAt,value
2018-09-06T00:01:42.353Z,40.80
2018-09-06T00:04:16.939Z,44.03
2018-09-06T00:06:51.582Z,38.37
2018-09-06T00:09:26.241Z,43.40
2018-09-06T00:12:01.292Z,42.50
2018-09-06T00:14:35.725Z,35.83
2018-09-06T00:17:10.269Z,34.43
2018-09-06T00:19:44.881Z,28.73
2018-09-06T00:22:19.422Z,27.57
2018-09-06T00:24:53.976Z,25.97
2018-09-06T00:27:28.510Z,23.10
2018-09-06T00:30:03.098Z,23.83
2018-09-06T00:32:37.606Z,24.97
2018-09-06T00:35:12.273Z,20.80
2018-09-06T00:37:47.010Z,20.53
2018-09-06T00:40:21.703Z,21.93
2018-09-06T00:42:56.197Z,23.37
2018-09-06T00:45:30.886Z,25.83
2018-09-06T00:48:05.488Z,25.80
2018-09-06T00:50:40.815Z,28.80
2018-09-06T00:53:15.397Z,24.57
2018-09-06T00:55:50.039Z,26.77
2018-09-06T00:58:24.946Z,27.13
2018-09-06T01:00:59.369Z,24.77
2018-09-06T01:03:34.029Z,30.67
2018-09-06T01:06:08.693Z,26.90
2018-09-06T01:08:43.572Z,24.97
2018-09-06T01:11:18.516Z,27.43
2018-09-06T01:13:53.537Z,30.87
2018-09-06T01:16:28.572Z,26.27
2018-09-06T01:19:03.280Z,28.27
2018-09-06T01:21:38.200Z,30.77
2018-09-06T01:24:13.472Z,27.97
2018-09-06T01:26:48.335Z,26.03
2018-09-06T01:29:23.301Z,26.87
2018-09-06T01:31:57.915Z,27.63
2018-09-06T01:34:32.693Z,29.80
2018-09-06T01:37:09.348Z,26.30
2018-09-06T01:39:44.187Z,29.67
2018-09-06T01:42:18.956Z,25.63
2018-09-06T01:44:53.862Z,26.53
2018-09-06T01:47:28.323Z,23.03
2018-09-06T01:50:02.926Z,28.30
2018-09-06T01:52:38.226Z,27.13
2018-09-06T01:55:13.176Z,27.57
2018-09-06T01:57:47.833Z,32.77
2018-09-06T02:00:22.249Z,25.80
2018-09-06T02:02:56.810Z,25.20
2018-09-06T02:05:35.541Z,30.10
2018-09-06T02:08:10.074Z,24.07
2018-09-06T02:10:45.068Z,25.07
2018-09-06T02:13:19.720Z,26.10
2018-09-06T02:15:54.558Z,27.40
2018-09-06T02:18:29.193Z,25.20
2018-09-06T02:21:03.956Z,26.90
2018-09-06T02:23:38.593Z,29.20
2018-09-06T02:26:13.541Z,29.07
2018-09-06T02:28:48.319Z,36.00
2018-09-06T02:31:22.899Z,33.40
2018-09-06T02:33:57.883Z,31.87
2018-09-06T02:36:32.403Z,32.37
2018-09-06T02:39:07.760Z,36.87
2018-09-06T02:41:42.385Z,37.27
2018-09-06T02:44:36.326Z,37.40
2018-09-06T02:47:11.003Z,39.10
2018-09-06T02:49:53.293Z,39.20
2018-09-06T02:52:27.889Z,36.53
2018-09-06T02:55:02.761Z,44.00
2018-09-06T02:57:37.607Z,43.63
2018-09-06T03:00:12.164Z,41.77
2018-09-06T03:02:46.878Z,43.10
2018-09-06T03:05:21.660Z,40.57
2018-09-06T03:07:57.624Z,45.67
2018-09-06T03:10:38.844Z,44.23
2018-09-06T03:13:13.390Z,45.77
2018-09-06T03:15:47.966Z,46.23
2018-09-06T03:18:22.978Z,46.47
2018-09-06T03:20:57.524Z,50.43
2018-09-06T03:23:32.403Z,50.83
2018-09-06T03:26:12.249Z,48.47
2018-09-06T03:28:49.626Z,47.67
2018-09-06T03:31:24.162Z,47.97
2018-09-06T03:34:11.742Z,46.07
2018-09-06T03:36:46.284Z,49.90
2018-09-06T03:39:20.847Z,45.77
2018-09-06T03:41:55.318Z,53.30
2018-09-06T03:44:30.247Z,48.90
2018-09-06T03:47:04.682Z,51.90
2018-09-06T03:49:39.427Z,54.70
2018-09-06T03:52:14.162Z,53.37
2018-09-06T03:54:48.873Z,59.80
2018-09-06T03:57:23.481Z,55.00
2018-09-06T03:59:58.353Z,52.90
2018-09-06T04:02:33.165Z,64.93
2018-09-06T04:05:21.968Z,68.47
2018-09-06T04:08:10.133Z,63.20
2018-09-06T04:10:44.937Z,67.63
2018-09-06T04:13:19.981Z,79.23
2018-09-06T04:15:55.702Z,80.50
2018-09-06T04:18:30.232Z,94.77
2018-09-06T04:21:10.849Z,94.20
2018-09-06T04:23:45.628Z,74.07
2018-09-06T04:26:20.510Z,72.57
2018-09-06T04:28:55.160Z,89.97
2018-09-06T04:31:29.863Z,96.33
2018-09-06T04:34:04.521Z,103.07
2018-09-06T04:36:39.480Z,115.53
2018-09-06T04:39:14.260Z,108.47
2018-09-06T04:41:48.889Z,107.73
2018-09-06T04:44:24.016Z,127.83
2018-09-06T04:46:58.766Z,127.20
2018-09-06T04:49:33.817Z,143.23
2018-09-06T04:52:08.339Z,112.33
2018-09-06T04:54:43.026Z,116.17
2018-09-06T04:57:17.694Z,118.13
2018-09-06T04:59:52.346Z,144.13
2018-09-06T05:02:26.952Z,159.47
2018-09-06T05:05:01.587Z,128.53
2018-09-06T05:07:36.368Z,122.07
2018-09-06T05:10:10.954Z,129.47
2018-09-06T05:12:45.589Z,118.50
2018-09-06T05:15:20.296Z,118.40
2018-09-06T05:17:54.992Z,121.50
2018-09-06T05:20:29.604Z,139.20
2018-09-06T05:23:04.929Z,127.30
2018-09-06T05:25:39.743Z,80.17
2018-09-06T05:28:14.273Z,66.70
2018-09-06T05:30:48.928Z,63.43
2018-09-06T05:33:23.702Z,61.30
2018-09-06T05:35:58.513Z,63.07
2018-09-06T05:38:33.181Z,68.90
2018-09-06T05:41:07.913Z,76.07
2018-09-06T05:43:42.449Z,72.27
2018-09-06T05:46:17.295Z,74.23
2018-09-06T05:48:51.906Z,64.77
2018-09-06T05:51:27.002Z,77.50
2018-09-06T05:54:01.588Z,75.50
2018-09-06T05:56:36.191Z,74.97
2018-09-06T05:59:10.831Z,75.30
2018-09-06T06:01:45.538Z,59.17
2018-09-06T06:04:20.240Z,62.30
2018-09-06T06:06:54.928Z,65.57
2018-09-06T06:09:29.491Z,65.83
2018-09-06T06:12:04.575Z,64.27
2018-09-06T06:14:39.388Z,53.07
2018-09-06T06:17:13.940Z,57.57
2018-09-06T06:19:48.675Z,57.30
2018-09-06T06:22:23.293Z,61.97
2018-09-06T06:24:58.088Z,59.47
2018-09-06T06:27:32.847Z,54.47
2018-09-06T06:30:07.353Z,63.93
2018-09-06T06:32:42.025Z,55.67
2018-09-06T06:35:16.783Z,63.40
2018-09-06T06:37:51.263Z,62.03
2018-09-06T06:40:25.937Z,74.70
2018-09-06T06:43:00.511Z,77.13
2018-09-06T06:45:35.165Z,59.63
2018-09-06T06:48:09.673Z,59.40
2018-09-06T06:50:44.156Z,64.73
2018-09-06T06:53:18.819Z,61.97
2018-09-06T06:55:53.327Z,62.87
2018-09-06T06:58:27.949Z,65.17
2018-09-06T07:01:02.776Z,82.53
2018-09-06T07:03:37.386Z,59.13
2018-09-06T07:06:11.981Z,57.50
2018-09-06T07:08:46.564Z,56.90
2018-09-06T07:11:21.258Z,51.40
2018-09-06T07:13:55.963Z,41.73
2018-09-06T07:16:30.584Z,50.97
2018-09-06T07:19:05.249Z,59.50
2018-09-06T07:21:39.861Z,59.63
2018-09-06T07:24:14.496Z,54.00
2018-09-06T07:26:49.132Z,60.27
2018-09-06T07:29:23.654Z,66.47
2018-09-06T07:31:58.551Z,67.90
2018-09-06T07:34:33.218Z,60.57
2018-09-06T07:37:07.760Z,66.87
2018-09-06T07:39:42.739Z,70.50
2018-09-06T07:45:16.883Z,60.73
2018-09-06T07:47:51.886Z,57.60
2018-09-06T07:50:26.523Z,56.87
2018-09-06T07:53:01.365Z,63.70
2018-09-06T07:55:36.088Z,62.87
2018-09-06T07:58:10.992Z,62.03
2018-09-06T08:00:45.461Z,62.00
2018-09-06T08:03:25.744Z,57.40
2018-09-06T08:06:00.744Z,54.80
2018-09-06T08:08:35.168Z,57.97
2018-09-06T08:11:19.977Z,58.57
2018-09-06T08:13:54.481Z,59.63
2018-09-06T08:16:29.503Z,70.00
2018-09-06T08:19:04.107Z,72.33
2018-09-06T08:21:38.812Z,66.60
2018-09-06T08:24:13.438Z,62.53
2018-09-06T08:26:48.114Z,69.73
2018-09-06T08:29:22.849Z,77.23
2018-09-06T08:31:57.424Z,73.13
2018-09-06T08:34:31.893Z,60.47
2018-09-06T08:37:07.195Z,46.00
2018-09-06T08:39:42.187Z,49.10
2018-09-06T08:42:17.117Z,50.33
2018-09-06T08:44:51.807Z,62.10
2018-09-06T08:47:27.073Z,53.30
2018-09-06T08:50:01.652Z,51.30
2018-09-06T08:52:36.128Z,52.50
2018-09-06T08:55:11.241Z,54.57
2018-09-06T08:57:46.109Z,62.73
2018-09-06T09:00:20.772Z,54.93
2018-09-06T09:02:55.429Z,52.10
2018-09-06T09:05:30.317Z,43.00
2018-09-06T09:08:05.645Z,38.53
2018-09-06T09:10:40.317Z,43.70
2018-09-06T09:13:14.898Z,47.10
2018-09-06T09:15:49.907Z,57.30
2018-09-06T09:18:24.377Z,54.97
2018-09-06T09:20:58.998Z,55.47
2018-09-06T09:23:33.473Z,55.23
2018-09-06T09:26:08.126Z,49.47
2018-09-06T09:28:42.652Z,51.90
2018-09-06T09:31:17.300Z,42.17
2018-09-06T09:33:59.960Z,48.13
2018-09-06T09:36:34.792Z,47.53
2018-09-06T09:39:10.357Z,56.00
2018-09-06T09:41:45.220Z,48.20
2018-09-06T09:44:33.014Z,41.97
2018-09-06T09:49:41.473Z,41.67
2018-09-06T09:52:16.001Z,37.97
2018-09-06T09:54:50.770Z,38.10
2018-09-06T09:57:25.422Z,35.83
2018-09-06T09:59:59.903Z,34.07
2018-09-06T10:02:39.823Z,21.00
2018-09-06T10:05:19.833Z,21.17
2018-09-06T10:07:55.788Z,26.40
2018-09-06T10:10:30.290Z,26.77
2018-09-06T10:13:04.841Z,30.80
2018-09-06T10:15:40.087Z,30.90
2018-09-06T10:18:14.802Z,30.13
2018-09-06T10:20:49.524Z,28.00
2018-09-06T10:23:24.422Z,29.47
2018-09-06T10:25:59.204Z,30.00
2018-09-06T10:28:33.773Z,29.97
2018-09-06T10:31:08.610Z,31.77
2018-09-06T10:33:43.388Z,34.80
2018-09-06T10:36:18.345Z,37.97
2018-09-06T10:38:53.043Z,29.83
2018-09-06T10:41:27.712Z,33.13
2018-09-06T10:44:02.564Z,26.83
2018-09-06T10:46:37.217Z,27.93
2018-09-06T10:49:11.810Z,28.00
2018-09-06T10:51:46.636Z,31.23
2018-09-06T10:54:21.237Z,33.40
2018-09-06T10:56:55.789Z,43.13
2018-09-06T10:59:30.809Z,42.90
2018-09-06T11:02:05.556Z,45.10
2018-09-06T11:04:40.300Z,52.67
2018-09-06T11:07:14.888Z,49.10
2018-09-06T11:09:49.591Z,59.80
2018-09-06T11:12:30.412Z,47.67
2018-09-06T11:15:16.731Z,52.90
2018-09-06T11:18:10.766Z,41.77
2018-09-06T11:20:45.893Z,43.03
2018-09-06T11:23:20.587Z,52.00
2018-09-06T11:25:55.105Z,48.97
2018-09-06T11:28:29.682Z,41.73
2018-09-06T11:31:04.448Z,38.03
2018-09-06T11:33:39.159Z,44.40
2018-09-06T11:36:13.849Z,39.57
2018-09-06T11:38:48.668Z,42.60
2018-09-06T11:41:23.125Z,42.03
2018-09-06T11:43:58.000Z,40.70
2018-09-06T11:46:32.606Z,43.93
2018-09-06T11:49:07.021Z,40.63
2018-09-06T11:51:41.594Z,40.70
2018-09-06T11:54:16.211Z,44.07
2018-09-06T11:56:50.998Z,43.57
2018-09-06T11:59:26.027Z,46.57
2018-09-06T12:02:00.500Z,50.60
2018-09-06T12:04:35.147Z,49.97
2018-09-06T12:07:10.129Z,59.20
2018-09-06T12:09:44.681Z,64.50
2018-09-06T12:12:19.443Z,61.17
2018-09-06T12:14:54.116Z,68.47
2018-09-06T12:17:28.947Z,67.30
2018-09-06T12:20:03.581Z,65.40
2018-09-06T12:22:38.521Z,67.57
2018-09-06T12:25:13.377Z,70.13
2018-09-06T12:27:48.248Z,64.33
2018-09-06T12:30:23.305Z,70.07
2018-09-06T12:32:58.200Z,60.63
2018-09-06T12:35:32.807Z,55.93
2018-09-06T12:38:07.494Z,64.73
2018-09-06T12:40:42.096Z,60.33
2018-09-06T12:43:17.013Z,55.77
2018-09-06T12:45:51.457Z,59.20
2018-09-06T12:48:25.910Z,48.37
2018-09-06T12:51:00.364Z,46.70
2018-09-06T12:53:35.023Z,51.60
2018-09-06T12:56:09.611Z,50.67
2018-09-06T12:58:44.841Z,49.17
2018-09-06T13:01:19.472Z,43.20
2018-09-06T13:03:54.107Z,43.80
2018-09-06T13:06:29.336Z,39.57
2018-09-06T13:09:05.796Z,37.37
2018-09-06T13:11:40.476Z,36.63
2018-09-06T13:14:14.953Z,37.00
2018-09-06T13:16:49.649Z,33.37
2018-09-06T13:19:24.263Z,33.00
2018-09-06T13:21:58.905Z,31.87
2018-09-06T13:24:33.596Z,29.83
2018-09-06T13:27:08.384Z,32.83
2018-09-06T13:29:43.587Z,33.10
2018-09-06T13:32:17.958Z,32.00
2018-09-06T13:34:52.429Z,33.10
2018-09-06T13:37:27.143Z,32.20
2018-09-06T13:40:01.998Z,31.93
2018-09-06T13:42:36.573Z,33.00
2018-09-06T13:45:11.155Z,30.93
2018-09-06T13:47:45.772Z,32.67
2018-09-06T13:50:20.336Z,33.70
2018-09-06T13:55:52.218Z,35.23
2018-09-06T13:58:26.880Z,37.50
2018-09-06T14:01:01.477Z,36.70
2018-09-06T14:03:36.395Z,42.20
2018-09-06T14:06:11.448Z,37.27
2018-09-06T14:08:46.677Z,38.43
2018-09-06T14:11:21.314Z,37.80
2018-09-06T14:13:55.884Z,39.07
2018-09-06T14:16:30.986Z,45.43
2018-09-06T14:19:05.741Z,43.00
2018-09-06T14:21:45.233Z,48.77
2018-09-06T14:24:19.965Z,50.10
2018-09-06T14:26:54.944Z,54.67
2018-09-06T14:29:30.188Z,56.23
2018-09-06T14:32:04.926Z,53.30
2018-09-06T14:34:39.677Z,56.23
2018-09-06T14:37:14.165Z,57.90
2018-09-06T14:39:49.190Z,57.07
2018-09-06T14:42:29.560Z,66.63
2018-09-06T14:45:05.107Z,59.63
2018-09-06T14:47:40.110Z,56.73
2018-09-06T14:50:14.805Z,63.67
2018-09-06T14:52:55.429Z,55.20
2018-09-06T14:55:34.559Z,59.33
2018-09-06T14:58:09.132Z,55.23
2018-09-06T15:00:43.774Z,61.43
2018-09-06T15:03:18.588Z,60.57
2018-09-06T15:05:53.220Z,65.27
2018-09-06T15:08:27.900Z,62.07
2018-09-06T15:11:02.448Z,65.43
2018-09-06T15:13:37.840Z,68.67
2018-09-06T15:16:12.609Z,71.80
2018-09-06T15:18:47.765Z,69.90
2018-09-06T15:21:22.589Z,73.10
2018-09-06T15:23:57.048Z,73.00
2018-09-06T15:26:56.590Z,66.43
2018-09-06T15:29:31.165Z,71.30
2018-09-06T15:32:06.063Z,73.93
2018-09-06T15:34:41.168Z,71.87
2018-09-06T15:37:15.987Z,79.97
2018-09-06T15:39:50.698Z,81.73
2018-09-06T15:42:26.520Z,78.30
2018-09-06T15:45:01.152Z,90.87
2018-09-06T15:47:35.720Z,80.97
2018-09-06T15:50:10.347Z,79.77
2018-09-06T15:52:45.159Z,87.53
2018-09-06T15:55:19.771Z,86.27
2018-09-06T15:57:54.320Z,87.37
2018-09-06T16:00:29.221Z,84.23
2018-09-06T16:03:03.568Z,83.53
2018-09-06T16:05:38.101Z,92.10
2018-09-06T16:08:12.573Z,86.77
2018-09-06T16:10:47.036Z,87.77
2018-09-06T16:13:23.025Z,99.23
2018-09-06T16:15:58.023Z,86.33
2018-09-06T16:18:34.644Z,92.03
2018-09-06T16:21:09.353Z,91.87
2018-09-06T16:23:44.098Z,96.60
2018-09-06T16:26:18.725Z,86.73
2018-09-06T16:28:53.821Z,88.10
2018-09-06T16:31:28.569Z,99.20
2018-09-06T16:34:03.177Z,102.00
2018-09-06T16:36:37.797Z,96.70
2018-09-06T16:39:12.819Z,98.23
2018-09-06T16:41:47.481Z,102.47
2018-09-06T16:44:22.025Z,92.30
2018-09-06T16:46:56.983Z,95.97
2018-09-06T16:49:31.707Z,93.87
2018-09-06T16:52:06.317Z,107.20
2018-09-06T16:54:40.853Z,98.67
2018-09-06T16:57:15.669Z,106.70
2018-09-06T16:59:50.337Z,96.60
2018-09-06T17:02:25.052Z,93.33
2018-09-06T17:05:00.394Z,105.97
2018-09-06T17:07:35.289Z,99.77
2018-09-06T17:10:09.856Z,102.73
2018-09-06T17:12:44.416Z,93.63
2018-09-06T17:15:19.373Z,82.13
2018-09-06T17:17:53.948Z,86.13
2018-09-06T17:20:29.067Z,75.50
2018-09-06T17:23:03.818Z,77.83
2018-09-06T17:25:38.582Z,78.97
2018-09-06T17:28:13.502Z,65.07
2018-09-06T17:30:48.829Z,65.97
2018-09-06T17:33:23.784Z,71.70
2018-09-06T17:35:59.220Z,67.17
2018-09-06T17:38:34.102Z,70.97
2018-09-06T17:41:08.521Z,71.47
2018-09-06T17:43:43.197Z,67.20
2018-09-06T17:46:18.121Z,64.80
2018-09-06T17:48:52.984Z,65.00
2018-09-06T17:51:27.648Z,68.00
2018-09-06T17:54:02.318Z,72.60
2018-09-06T17:56:37.097Z,65.50
2018-09-06T17:59:11.660Z,66.37
2018-09-06T18:01:46.157Z,68.43
2018-09-06T18:04:20.725Z,60.80
2018-09-06T18:06:55.484Z,59.37
2018-09-06T18:09:30.134Z,56.53
2018-09-06T18:12:05.473Z,58.10
2018-09-06T18:14:40.211Z,56.43
2018-09-06T18:17:14.910Z,59.13
2018-09-06T18:19:49.599Z,55.03
2018-09-06T18:22:24.289Z,53.77
2018-09-06T18:24:58.962Z,57.57
2018-09-06T18:27:33.652Z,54.17
2018-09-06T18:30:08.268Z,53.80
2018-09-06T18:32:42.852Z,55.60
2018-09-06T18:35:17.765Z,52.57
2018-09-06T18:37:52.442Z,50.37
2018-09-06T18:40:27.011Z,48.97
2018-09-06T18:43:01.564Z,51.27
2018-09-06T18:45:36.213Z,56.30
2018-09-06T18:48:10.895Z,53.67
2018-09-06T18:50:45.553Z,55.37
2018-09-06T18:53:20.173Z,55.70
2018-09-06T18:55:54.870Z,55.23
2018-09-06T18:58:29.669Z,56.07
2018-09-06T19:01:04.494Z,53.83
2018-09-06T19:03:39.266Z,64.27
2018-09-06T19:06:13.973Z,55.17
2018-09-06T19:08:49.059Z,55.57
2018-09-06T19:11:23.813Z,53.37
2018-09-06T19:13:58.540Z,53.10
2018-09-06T19:16:33.384Z,48.93
2018-09-06T19:19:07.817Z,48.20
2018-09-06T19:21:42.417Z,45.00
2018-09-06T19:24:17.260Z,46.10
2018-09-06T19:26:51.925Z,44.17
2018-09-06T19:29:26.547Z,45.13
2018-09-06T19:32:01.127Z,42.27
2018-09-06T19:34:35.660Z,40.47
2018-09-06T19:37:10.566Z,40.37
2018-09-06T19:39:45.109Z,32.70
2018-09-06T19:42:19.744Z,37.10
2018-09-06T19:44:54.394Z,35.60
2018-09-06T19:47:29.189Z,31.83
2018-09-06T19:50:03.822Z,34.83
2018-09-06T19:52:38.378Z,35.30
2018-09-06T19:55:12.929Z,35.33
2018-09-06T19:57:47.716Z,37.40
2018-09-06T20:00:22.340Z,36.93
2018-09-06T20:02:56.944Z,36.63
2018-09-06T20:05:31.561Z,38.43
2018-09-06T20:08:06.388Z,42.03
2018-09-06T20:10:41.065Z,42.27
2018-09-06T20:13:15.813Z,40.67
2018-09-06T20:15:50.373Z,41.87
2018-09-06T20:18:25.136Z,39.20
2018-09-06T20:20:59.753Z,47.93
2018-09-06T20:23:34.416Z,44.53
2018-09-06T20:26:09.195Z,50.23
2018-09-06T20:28:43.852Z,49.47
2018-09-06T20:31:18.468Z,52.93
2018-09-06T20:33:53.129Z,55.03
2018-09-06T20:36:27.721Z,56.43
2018-09-06T20:39:02.340Z,50.23
2018-09-06T20:41:36.803Z,53.43
2018-09-06T20:44:11.371Z,50.33
2018-09-06T20:46:45.846Z,54.70
2018-09-06T20:49:20.444Z,51.07
2018-09-06T20:51:55.201Z,52.00
2018-09-06T20:54:29.729Z,56.33
2018-09-06T20:57:04.659Z,57.07
2018-09-06T20:59:39.348Z,54.63
2018-09-06T21:02:19.425Z,54.67
2018-09-06T21:04:54.606Z,52.97
2018-09-06T21:07:29.203Z,52.50
2018-09-06T21:10:04.380Z,50.10
2018-09-06T21:12:38.936Z,56.80
2018-09-06T21:15:13.688Z,55.63
2018-09-06T21:17:48.248Z,47.10
2018-09-06T21:20:22.772Z,47.70
2018-09-06T21:22:57.385Z,50.60
2018-09-06T21:25:31.954Z,51.10
2018-09-06T21:28:06.708Z,50.53
2018-09-06T21:30:41.253Z,51.60
2018-09-06T21:33:15.855Z,52.87
2018-09-06T21:35:50.575Z,57.10
2018-09-06T21:38:25.252Z,53.93
2018-09-06T21:40:59.953Z,51.27
2018-09-06T21:43:34.649Z,48.83
2018-09-06T21:46:09.233Z,53.13
2018-09-06T21:48:43.784Z,52.43
2018-09-06T21:51:18.577Z,54.43
2018-09-06T21:53:53.251Z,59.93
2018-09-06T21:56:27.753Z,55.67
2018-09-06T21:59:02.441Z,61.17
2018-09-06T22:01:37.474Z,58.87
2018-09-06T22:04:12.186Z,55.53
2018-09-06T22:06:46.976Z,67.90
2018-09-06T22:09:21.346Z,62.17
2018-09-06T22:11:55.996Z,66.93
2018-09-06T22:14:30.581Z,68.10
2018-09-06T22:17:05.452Z,63.83
2018-09-06T22:19:40.173Z,72.87
2018-09-06T22:22:14.792Z,66.70
2018-09-06T22:24:49.459Z,63.83
2018-09-06T22:27:24.083Z,68.27
2018-09-06T22:29:58.814Z,63.73
2018-09-06T22:32:33.437Z,64.60
2018-09-06T22:35:08.344Z,62.07
2018-09-06T22:37:43.468Z,64.47
2018-09-06T22:40:18.318Z,62.80
2018-09-06T22:42:52.989Z,68.53
2018-09-06T22:45:27.664Z,63.50
2018-09-06T22:48:02.598Z,64.67
2018-09-06T22:50:37.361Z,57.00
2018-09-06T22:53:11.976Z,58.13
2018-09-06T22:55:46.504Z,54.97
2018-09-06T22:58:21.122Z,59.10
2018-09-06T23:00:55.745Z,62.00
2018-09-06T23:03:35.542Z,58.47
2018-09-06T23:06:10.201Z,62.93
2018-09-06T23:08:44.907Z,64.23
2018-09-06T23:11:19.881Z,65.83
2018-09-06T23:13:54.589Z,76.20
2018-09-06T23:16:29.281Z,75.97
2018-09-06T23:19:04.025Z,87.17
2018-09-06T23:21:38.677Z,79.87
2018-09-06T23:24:25.224Z,98.17
2018-09-06T23:26:59.763Z,97.93
2018-09-06T23:29:34.244Z,91.60
2018-09-06T23:32:09.313Z,94.07
2018-09-06T23:34:44.010Z,78.87
2018-09-06T23:37:18.624Z,71.87
2018-09-06T23:39:53.608Z,81.13
2018-09-06T23:42:28.481Z,80.50
2018-09-06T23:45:03.088Z,91.13
2018-09-06T23:47:37.757Z,92.97
2018-09-06T23:50:12.397Z,91.10
2018-09-06T23:52:47.168Z,108.97
2018-09-06T23:55:22.309Z,109.93
2018-09-06T23:57:57.020Z,91.23
